Flight Track Log - Related Links

Times and Time Zones

All times are in EDT time to prevent confusion due to time zone crossing. See the DAL268 flight status page for this flight to view local times or setup timezone preferences in your user account.

Time Position Orientation Groundspeed Altitude Reporting Facility
EDT Latitude Longitude Course Direction KTS MPH feet Rate Location/Type
Thu 02:37:20 PM 37.6100 -122.3790 38° Northeast 82 94  Level FlightAware ADS-B
Thu 02:37:42 PM 37.6223 -122.3700 30° Northeast 164 189 100 1,029 Climbing FlightAware ADS-B
Thu 02:37:55 PM 37.6305 -122.3650 26° Northeast 163 188 600 2,500 Climbing FlightAware ADS-B
Thu 02:38:06 PM 37.6377 -122.3590 33° Northeast 168 193 1,100 2,800 Climbing FlightAware ADS-B
Thu 02:38:10 PM 37.6400 -122.3570 35° Northeast 173 199 1,300 2,571 Climbing FlightAware ADS-B
Thu 02:38:13 PM 37.6419 -122.3540 51° Northeast 177 204 1,400 1,600 Climbing FlightAware ADS-B
Thu 02:38:25 PM 37.6480 -122.3440 52° Northeast 191 220 1,700 1,714 Climbing FlightAware ADS-B
Thu 02:38:41 PM 37.6579 -122.3290 50° Northeast 211 243 2,200 1,875 Climbing FlightAware ADS-B
Thu 02:38:57 PM 37.6682 -122.3140 49° Northeast 229 264 2,700 1,742 Climbing FlightAware ADS-B
Thu 02:39:12 PM 37.6792 -122.2980 49° Northeast 249 287 3,100 1,800 Climbing FlightAware ADS-B
Thu 02:39:27 PM 37.6919 -122.2810 47° Northeast 264 304 3,600 2,600 Climbing FlightAware ADS-B
Thu 02:39:42 PM 37.7046 -122.2640 47° Northeast 267 307 4,400 3,000 Climbing FlightAware ADS-B
Thu 02:39:57 PM 37.7178 -122.2470 46° Northeast 272 313 5,100 2,791 Climbing FlightAware ADS-B
Thu 02:40:25 PM 37.7434 -122.2150 45° Northeast 284 327 6,400 2,760 Climbing FlightAware ADS-B
Thu 02:40:47 PM 37.7642 -122.1880 46° Northeast 291 335 7,400 2,786 Climbing FlightAware ADS-B
Thu 02:40:53 PM 37.7692 -122.1800 52° Northeast 292 336 7,700 2,667 Climbing FlightAware ADS-B
Thu 02:41:05 PM 37.7770 -122.1630 60° Northeast 295 339 8,200 2,769 Climbing FlightAware ADS-B
Thu 02:41:19 PM 37.7839 -122.1410 68° East 296 341 8,900 2,897 Climbing FlightAware ADS-B
Thu 02:41:34 PM 37.7905 -122.1160 72° East 299 344 9,600 2,348 Climbing FlightAware ADS-B
Thu 02:42:05 PM 37.8041 -122.0630 72° East 318 366 10,700 1,524 Climbing FlightAware ADS-B
Thu 02:42:37 PM 37.8196 -122.0040 72° East 355 409 11,200 1,065 Climbing FlightAware ADS-B
Thu 02:43:07 PM 37.8357 -121.9410 72° East 373 429 11,800 1,770 Climbing FlightAware ADS-B
Thu 02:43:38 PM 37.8534 -121.8730 72° East 392 451 13,000 2,262 Climbing FlightAware ADS-B
Thu 02:44:08 PM 37.8706 -121.8070 72° East 401 461 14,100 2,164 Climbing FlightAware ADS-B
Thu 02:44:39 PM 37.8881 -121.7390 72° East 407 468 15,200 2,164 Climbing FlightAware ADS-B
Thu 02:45:09 PM 37.9058 -121.6700 72° East 413 475 16,300 2,100 Climbing FlightAware ADS-B
Thu 02:45:39 PM 37.9236 -121.6010 72° East 420 483 17,300 2,000 Climbing FlightAware ADS-B
Thu 02:45:57 PM 37.9336 -121.5590 73° East 423 487 17,900 1,875 Climbing FlightAware ADS-B
Thu 02:46:27 PM 37.9475 -121.4850 77° East 431 496 18,800 1,900 Climbing FlightAware ADS-B
Thu 02:46:57 PM 37.9614 -121.4100 77° East 436 502 19,800 1,941 Climbing FlightAware ADS-B
Thu 02:47:35 PM 37.9793 -121.3170 76° East 443 510 21,000 1,750 Climbing FlightAware ADS-B
Thu 02:48:09 PM 37.9968 -121.2290 76° East 446 513 21,900 1,594 Climbing FlightAware ADS-B
Thu 02:48:39 PM 38.0120 -121.1510 76° East 458 527 22,700 1,594 Climbing FlightAware ADS-B
Thu 02:49:13 PM 38.0290 -121.0630 76° East 465 535 23,600 1,543 Climbing FlightAware ADS-B
Thu 02:49:49 PM 38.0480 -120.9690 76° East 471 542 24,500 1,371 Climbing FlightAware ADS-B
Thu 02:50:23 PM 38.0650 -120.8750 77° East 480 552 25,200 1,286 Climbing FlightAware ADS-B
Thu 02:50:59 PM 38.0840 -120.7750 76° East 488 562 26,000 1,235 Climbing FlightAware ADS-B
Thu 02:51:31 PM 38.1000 -120.6860 77° East 497 572 26,600 1,043 Climbing FlightAware ADS-B
Thu 02:52:08 PM 38.1190 -120.5820 77° East 506 582 27,200 1,000 Climbing FlightAware ADS-B
Thu 02:52:43 PM 38.1380 -120.4790 77° East 515 593 27,800 1,014 Climbing FlightAware ADS-B
Thu 02:53:19 PM 38.1580 -120.3720 77° East 523 602 28,400 1,147 Climbing FlightAware ADS-B
Thu 02:53:51 PM 38.1750 -120.2750 77° East 525 604 29,100 1,457 Climbing FlightAware ADS-B
Thu 02:54:29 PM 38.1960 -120.1640 76° East 525 604 30,100 1,541 Climbing FlightAware ADS-B
Thu 02:55:05 PM 38.2150 -120.0530 78° East 523 602 31,000 1,478 Climbing FlightAware ADS-B
Thu 02:55:38 PM 38.2320 -119.9580 77° East 521 600 31,800 1,352 Climbing FlightAware ADS-B
Thu 02:56:16 PM 38.2520 -119.8470 77° East 520 598 32,600 1,412 Climbing FlightAware ADS-B
Thu 02:56:46 PM 38.2690 -119.7530 77° East 518 596 33,400 1,391 Climbing FlightAware ADS-B
Thu 02:57:25 PM 38.2890 -119.6370 78° East 517 595 34,200 1,250 Climbing FlightAware ADS-B
Thu 02:57:58 PM 38.3060 -119.5380 78° East 517 595 34,900 1,130 Climbing FlightAware ADS-B
Thu 02:58:34 PM 38.3240 -119.4330 78° East 518 596 35,500 1,147 Climbing FlightAware ADS-B
Thu 02:59:06 PM 38.3410 -119.3370 77° East 515 593 36,200 1,147 Climbing FlightAware ADS-B
Thu 02:59:42 PM 38.3590 -119.2310 78° East 514 592 36,800 649 Climbing FlightAware ADS-B
Thu 03:00:20 PM 38.3780 -119.1180 78° East 513 590 37,000 162 Climbing FlightAware ADS-B
Thu 03:00:56 PM 38.3960 -119.0130 78° East 511 588 37,000  Level FlightAware ADS-B
Thu 03:01:32 PM 38.4140 -118.9090 78° East 511 588 37,000  Level FlightAware ADS-B
Thu 03:02:04 PM 38.4300 -118.8120 78° East 512 589 37,000  Level FlightAware ADS-B
Thu 03:02:44 PM 38.4500 -118.6940 78° East 513 590 37,000  Level FlightAware ADS-B
Thu 03:03:43 PM 38.4780 -118.5200 78° East 513 590 37,000  Level FlightAware ADS-B
Thu 03:04:24 PM 38.4980 -118.3990 78° East 512 589 37,000  Level FlightAware ADS-B
Thu 03:05:08 PM 38.5200 -118.2680 78° East 513 590 37,000  Level FlightAware ADS-B
Thu 03:05:44 PM 38.5370 -118.1620 78° East 514 592 37,000  Level FlightAware ADS-B
Thu 03:06:20 PM 38.5540 -118.0540 79° East 514 592 37,000  Level FlightAware ADS-B
Thu 03:06:47 PM 38.5660 -117.9810 78° East 513 590 37,000  Level FlightAware ADS-B
Thu 03:07:25 PM 38.5820 -117.8850 78° East 513 590 37,000  Level FlightAware ADS-B
Thu 03:08:01 PM 38.5970 -117.7940 78° East 513 590 37,000  Level FlightAware ADS-B
Thu 03:08:38 PM 38.6120 -117.7000 78° East 513 590 37,000  Level FlightAware ADS-B
Thu 03:09:14 PM 38.6270 -117.6090 78° East 513 590 37,000  Level FlightAware ADS-B
Thu 03:09:50 PM 38.6430 -117.5180 77° East 513 590 37,000  Level FlightAware ADS-B
Thu 03:10:28 PM 38.6580 -117.4220 79° East 513 590 37,000  Level FlightAware ADS-B
Thu 03:11:05 PM 38.6740 -117.3290 78° East 513 590 37,000  Level FlightAware ADS-B
Thu 03:11:42 PM 38.6900 -117.2350 78° East 513 590 37,000  Level FlightAware ADS-B
Thu 03:12:19 PM 38.7050 -117.1420 78° East 513 590 37,000  Level FlightAware ADS-B
Thu 03:12:57 PM 38.7210 -117.0460 78° East 513 590 37,000  Level FlightAware ADS-B
Thu 03:13:35 PM 38.7370 -116.9500 78° East 513 590 37,000  Level FlightAware ADS-B
Thu 03:14:13 PM 38.7530 -116.8540 78° East 513 590 37,000  Level FlightAware ADS-B
Thu 03:14:50 PM 38.7680 -116.7600 78° East 513 590 37,000  Level FlightAware ADS-B
Thu 03:15:26 PM 38.7830 -116.6690 78° East 513 590 37,000  Level FlightAware ADS-B
Thu 03:16:03 PM 38.7990 -116.5750 78° East 513 590 37,000  Level FlightAware ADS-B
Thu 03:16:39 PM 38.8140 -116.4840 78° East 513 590 37,000  Level FlightAware ADS-B
Thu 03:17:10 PM 38.8461 -116.1236 78° East 516 594 37,000  Level Oakland Center
Thu 03:18:26 PM 38.8767 -115.9061 80° East 516 594 37,000  Level Salt Lake Center
Thu 03:19:28 PM 38.9017 -115.7250 80° East 515 593 37,000  Level Salt Lake Center
Thu 03:20:31 PM 38.9269 -115.5436 80° East 516 594 37,000  Level Salt Lake Center
Thu 03:21:33 PM 38.9550 -115.3392 80° East 512 589 37,000  Level Salt Lake Center
Thu 03:22:35 PM 38.9800 -115.1564 80° East 519 597 37,000  Level Salt Lake Center
Thu 03:23:37 PM 39.0042 -114.9756 80° East 516 594 37,000  Level Salt Lake Center
Thu 03:24:39 PM 39.0275 -114.7961 80° East 512 589 37,000  Level Salt Lake Center
Thu 03:25:41 PM 39.0561 -114.5789 80° East 513 590 37,000  Level Salt Lake Center
Thu 03:30:52 PM 39.1720 -113.6430 80° East 513 590 37,000  Level FlightAware ADS-B
Thu 03:31:37 PM 39.1880 -113.5010 82° East 513 590 37,000  Level FlightAware ADS-B
Thu 03:33:47 PM 39.2345 -113.1080 81° East 513 590 37,000  Level FlightAware ADS-B
Thu 03:34:19 PM 39.2455 -113.0120 82° East 513 590 37,000  Level FlightAware ADS-B
Thu 03:34:54 PM 39.2573 -112.9080 82° East 511 588 37,000  Level FlightAware ADS-B
Thu 03:35:24 PM 39.2676 -112.8170 82° East 512 589 37,000  Level FlightAware ADS-B
Thu 03:35:55 PM 39.2780 -112.7240 82° East 513 590 37,000  Level FlightAware ADS-B
Thu 03:36:33 PM 39.2910 -112.6070 82° East 513 590 37,000  Level FlightAware ADS-B
Thu 03:36:47 PM 39.2959 -112.5670 81° East 512 589 37,000  Level FlightAware ADS-B
Thu 03:37:08 PM 39.3083 -112.5060 75° East 508 585 37,000  Level FlightAware ADS-B
Thu 03:37:29 PM 39.3269 -112.4440 69° East 506 582 37,000  Level FlightAware ADS-B
Thu 03:38:00 PM 39.3558 -112.3600 66° East 504 580 37,000  Level FlightAware ADS-B
Thu 03:38:30 PM 39.3856 -112.2770 65° Northeast 504 580 37,000  Level FlightAware ADS-B
Thu 03:39:03 PM 39.4184 -112.1880 64° Northeast 503 579 37,000  Level FlightAware ADS-B
Thu 03:39:45 PM 39.4595 -112.0760 65° Northeast 503 579 37,000  Level FlightAware ADS-B
Thu 03:40:17 PM 39.4915 -111.9890 64° Northeast 504 580 37,000  Level FlightAware ADS-B
Thu 03:40:48 PM 39.5231 -111.9030 65° Northeast 503 579 37,000  Level FlightAware ADS-B
Thu 03:41:19 PM 39.5533 -111.8200 65° Northeast 504 580 37,000  Level FlightAware ADS-B
Thu 03:41:50 PM 39.5837 -111.7360 65° Northeast 503 579 37,000  Level FlightAware ADS-B
Thu 03:42:20 PM 39.6135 -111.6540 65° Northeast 503 579 37,000  Level FlightAware ADS-B
Thu 03:42:50 PM 39.6431 -111.5710 65° Northeast 503 579 37,000  Level FlightAware ADS-B
Thu 03:43:21 PM 39.6728 -111.4890 65° Northeast 502 578 37,000  Level FlightAware ADS-B
Thu 03:43:51 PM 39.7021 -111.4070 65° Northeast 502 578 37,000  Level FlightAware ADS-B
Thu 03:44:22 PM 39.7322 -111.3220 65° Northeast 502 578 37,000  Level FlightAware ADS-B
Thu 03:44:52 PM 39.7614 -111.2400 65° Northeast 501 577 37,000  Level FlightAware ADS-B
Thu 03:45:29 PM 39.7978 -111.1370 65° Northeast 501 577 37,000  Level FlightAware ADS-B
Thu 03:46:00 PM 39.8269 -111.0550 65° Northeast 499 574 37,000  Level FlightAware ADS-B
Thu 03:46:30 PM 39.8563 -110.9720 65° Northeast 499 574 37,000  Level FlightAware ADS-B
Thu 03:47:01 PM 39.8854 -110.8890 65° Northeast 499 574 37,000  Level FlightAware ADS-B
Thu 03:47:31 PM 39.9146 -110.8050 66° East 499 574 37,000  Level FlightAware ADS-B
Thu 03:48:01 PM 39.9432 -110.7240 65° Northeast 499 574 37,000  Level FlightAware ADS-B
Thu 03:49:02 PM 39.9980 -110.5670 65° Northeast 495 570 37,000  Level FlightAware ADS-B
Thu 03:49:31 PM 40.0270 -110.4820 66° East 494 568 37,000  Level FlightAware ADS-B
Thu 03:50:10 PM 40.0610 -110.3850 65° Northeast 493 567 37,000  Level FlightAware ADS-B
Thu 03:50:45 PM 40.0950 -110.2840 66° East 491 565 37,000  Level FlightAware ADS-B
Thu 03:51:18 PM 40.1200 -110.2110 66° East 490 564 37,000  Level FlightAware ADS-B
Thu 03:51:48 PM 40.1490 -110.1100 69° East 494 568 37,000  Level FlightAware ADS-B
Thu 03:52:30 PM 40.1690 -109.9910 78° East 494 568 37,000  Level FlightAware ADS-B
Thu 03:53:05 PM 40.1830 -109.8920 79° East 492 566 37,000  Level FlightAware ADS-B
Thu 03:53:36 PM 40.1970 -109.7930 79° East 490 564 37,000  Level FlightAware ADS-B
Thu 03:54:14 PM 40.2120 -109.6820 80° East 487 560 37,000  Level FlightAware ADS-B
Thu 03:54:48 PM 40.2260 -109.5850 79° East 484 557 37,000  Level FlightAware ADS-B
Thu 03:55:25 PM 40.2380 -109.5000 79° East 482 555 37,000  Level FlightAware ADS-B
Thu 03:56:00 PM 40.2540 -109.3830 80° East 480 552 37,000  Level FlightAware ADS-B
Thu 03:56:33 PM 40.2670 -109.2880 80° East 478 550 37,000  Level FlightAware ADS-B
Thu 03:57:03 PM 40.2790 -109.2010 80° East 477 549 37,000  Level FlightAware ADS-B
Thu 03:57:44 PM 40.2940 -109.0860 80° East 476 548 37,000  Level FlightAware ADS-B
Thu 03:58:15 PM 40.3070 -108.9950 79° East 476 548 37,000  Level FlightAware ADS-B
Thu 03:58:52 PM 40.3190 -108.9010 80° East 478 550 37,000  Level FlightAware ADS-B
Thu 03:59:37 PM 40.3370 -108.7730 80° East 479 551 37,000  Level FlightAware ADS-B
Thu 04:00:12 PM 40.3510 -108.6610 81° East 481 554 37,000  Level FlightAware ADS-B
Thu 04:00:47 PM 40.3630 -108.5680 80° East 481 554 37,000  Level FlightAware ADS-B
Thu 04:01:21 PM 40.3750 -108.4750 80° East 482 555 37,000  Level FlightAware ADS-B
Thu 04:01:59 PM 40.3900 -108.3560 81° East 483 556 37,000  Level FlightAware ADS-B
Thu 04:02:30 PM 40.4020 -108.2640 80° East 483 556 37,000  Level FlightAware ADS-B
Thu 04:03:06 PM 40.4150 -108.1600 81° East 484 557 37,000  Level FlightAware ADS-B
Thu 04:03:39 PM 40.4260 -108.0730 81° East 484 557 37,000  Level FlightAware ADS-B
Thu 04:04:16 PM 40.4400 -107.9630 80° East 484 557 37,000  Level FlightAware ADS-B
Thu 04:04:52 PM 40.4540 -107.8530 80° East 483 556 37,000  Level FlightAware ADS-B
Thu 04:05:27 PM 40.4660 -107.7550 81° East 482 555 37,000  Level FlightAware ADS-B
Thu 04:05:58 PM 40.4770 -107.6640 81° East 482 555 37,000  Level FlightAware ADS-B
Thu 04:06:34 PM 40.4880 -107.5700 81° East 479 551 37,000  Level FlightAware ADS-B
Thu 04:07:17 PM 40.5040 -107.4390 81° East 479 551 37,000  Level FlightAware ADS-B
Thu 04:07:47 PM 40.5150 -107.3510 81° East 477 549 37,000  Level FlightAware ADS-B
Thu 04:08:26 PM 40.5350 -107.2540 75° East 473 544 37,000  Level FlightAware ADS-B
Thu 04:09:11 PM 40.5640 -107.1470 70° East 473 544 37,000  Level FlightAware ADS-B
Thu 04:09:47 PM 40.5870 -107.0650 70° East 473 544 37,000  Level FlightAware ADS-B
Thu 04:10:20 PM 40.6230 -106.9420 69° East 469 540 37,000  Level FlightAware ADS-B
Thu 04:10:51 PM 40.6470 -106.8570 70° East 469 540 37,000  Level FlightAware ADS-B
Thu 04:11:28 PM 40.6720 -106.7730 69° East 469 540 37,000  Level FlightAware ADS-B
Thu 04:12:05 PM 40.6960 -106.6890 69° East 469 540 37,000  Level FlightAware ADS-B
Thu 04:12:42 PM 40.7210 -106.6050 69° East 469 540 37,000  Level FlightAware ADS-B
Thu 04:13:20 PM 40.7460 -106.5190 69° East 469 540 37,000  Level FlightAware ADS-B
Thu 04:13:59 PM 40.7890 -106.3490 71° East 471 542 37,000  Level FlightAware ADS-B
Thu 04:14:30 PM 40.8120 -106.2650 70° East 471 542 37,000  Level FlightAware ADS-B
Thu 04:15:05 PM 40.8360 -106.1780 70° East 472 543 37,000  Level FlightAware ADS-B
Thu 04:15:43 PM 40.8660 -106.0700 70° East 472 543 37,000  Level FlightAware ADS-B
Thu 04:16:17 PM 40.8920 -105.9740 70° East 472 543 37,000  Level FlightAware ADS-B
Thu 04:16:53 PM 40.9180 -105.8790 70° East 472 543 37,000  Level FlightAware ADS-B
Thu 04:17:25 PM 40.9420 -105.7910 70° East 472 543 37,000  Level FlightAware ADS-B
Thu 04:18:01 PM 40.9680 -105.6920 71° East 472 543 37,000  Level FlightAware ADS-B
Thu 04:18:33 PM 40.9910 -105.6060 70° East 472 543 37,000  Level FlightAware ADS-B
Thu 04:19:08 PM 41.0160 -105.5130 70° East 471 542 37,000  Level FlightAware ADS-B
Thu 04:19:47 PM 41.0450 -105.4050 70° East 470 541 37,000  Level FlightAware ADS-B
Thu 04:20:19 PM 41.0670 -105.3220 71° East 470 541 37,000  Level FlightAware ADS-B
Thu 04:20:59 PM 41.0960 -105.2120 71° East 469 540 37,000  Level FlightAware ADS-B
Thu 04:21:35 PM 41.1220 -105.1130 71° East 469 540 37,000  Level FlightAware ADS-B
Thu 04:21:54 PM 41.1362 -105.0600 70° East 470 541 37,000  Level FlightAware ADS-B
Thu 04:22:24 PM 41.1576 -104.9780 71° East 469 540 37,000  Level FlightAware ADS-B
Thu 04:22:57 PM 41.1805 -104.8900 71° East 469 540 37,000  Level FlightAware ADS-B
Thu 04:23:32 PM 41.2050 -104.7960 71° East 467 537 37,000  Level FlightAware ADS-B
Thu 04:24:08 PM 41.2294 -104.6980 72° East 468 539 37,000  Level FlightAware ADS-B
Thu 04:24:43 PM 41.2516 -104.6020 73° East 468 539 37,000  Level FlightAware ADS-B
Thu 04:25:13 PM 41.2707 -104.5200 73° East 467 537 37,000  Level FlightAware ADS-B
Thu 04:25:43 PM 41.2902 -104.4370 73° East 466 536 37,000  Level FlightAware ADS-B
Thu 04:26:14 PM 41.3101 -104.3510 73° East 465 535 37,000  Level FlightAware ADS-B
Thu 04:26:45 PM 41.3295 -104.2680 73° East 465 535 37,000  Level FlightAware ADS-B
Thu 04:27:15 PM 41.3487 -104.1860 73° East 465 535 37,000  Level FlightAware ADS-B
Thu 04:27:45 PM 41.3678 -104.1040 73° East 464 534 37,000  Level FlightAware ADS-B
Thu 04:28:17 PM 41.3880 -104.0170 73° East 463 533 37,000  Level FlightAware ADS-B
Thu 04:28:47 PM 41.4067 -103.9350 73° East 463 533 37,000  Level FlightAware ADS-B
Thu 04:29:18 PM 41.4260 -103.8510 73° East 462 532 37,000  Level FlightAware ADS-B
Thu 04:29:49 PM 41.4448 -103.7680 73° East 462 532 37,000  Level FlightAware ADS-B
Thu 04:30:19 PM 41.4635 -103.6860 73° East 460 529 37,000  Level FlightAware ADS-B
Thu 04:30:49 PM 41.4819 -103.6050 73° East 458 527 37,000  Level FlightAware ADS-B
Thu 04:31:20 PM 41.5004 -103.5220 73° East 457 526 37,000  Level FlightAware ADS-B
Thu 04:31:52 PM 41.5198 -103.4360 73° East 456 525 37,000  Level FlightAware ADS-B
Thu 04:32:22 PM 41.5381 -103.3550 73° East 455 524 37,000  Level FlightAware ADS-B
Thu 04:32:52 PM 41.5561 -103.2740 73° East 454 522 37,000  Level FlightAware ADS-B
Thu 04:33:25 PM 41.5758 -103.1850 73° East 455 524 37,000  Level FlightAware ADS-B
Thu 04:33:57 PM 41.5943 -103.1010 74° East 454 522 37,000  Level FlightAware ADS-B
Thu 04:34:27 PM 41.6094 -103.0190 76° East 458 527 37,000  Level FlightAware ADS-B
Thu 04:35:04 PM 41.6268 -102.9170 77° East 457 526 37,000  Level FlightAware ADS-B
Thu 04:35:51 PM 41.6464 -102.7870 79° East 460 529 37,000  Level FlightAware ADS-B
Thu 04:36:24 PM 41.6600 -102.6950 79° East 460 529 37,000  Level FlightAware ADS-B
Thu 04:36:56 PM 41.6735 -102.6050 79° East 460 529 37,000  Level FlightAware ADS-B
Thu 04:37:40 PM 41.6921 -102.4830 78° East 460 529 37,000  Level FlightAware ADS-B
Thu 04:38:11 PM 41.7052 -102.3970 78° East 462 532 37,000  Level FlightAware ADS-B
Thu 04:38:43 PM 41.7188 -102.3060 79° East 463 533 37,000  Level FlightAware ADS-B
Thu 04:39:38 PM 41.7390 -102.1820 78° East 463 533 37,000 85 Level FlightAware ADS-B
Thu 04:39:54 PM 41.7484 -102.1060 81° East 464 534 37,100 720 Climbing FlightAware ADS-B
Thu 04:40:28 PM 41.7622 -102.0110 79° East 469 540 37,600 1,031 Climbing FlightAware ADS-B
Thu 04:40:58 PM 41.7747 -101.9240 79° East 467 537 38,200 1,219 Climbing FlightAware ADS-B
Thu 04:41:32 PM 41.7885 -101.8290 79° East 460 529 38,900 505 Climbing FlightAware ADS-B
Thu 04:42:33 PM 41.8127 -101.6600 79° East 458 527 39,000 64 Climbing FlightAware ADS-B
Thu 04:43:06 PM 41.8250 -101.5922 79° East 459 528 39,000  Level Minneapolis Center
Thu 04:44:10 PM 41.8478 -101.4256 80° East 456 525 39,000  Level Minneapolis Center
Thu 04:45:11 PM 41.8683 -101.2589 81° East 455 524 39,000  Level Minneapolis Center
Thu 04:46:14 PM 41.8917 -101.0903 79° East 457 526 39,000  Level Minneapolis Center
Thu 04:47:14 PM 41.9189 -100.8892 80° East 457 526 39,000  Level Minneapolis Center
Thu 04:48:18 PM 41.9411 -100.7203 80° East 458 527 39,000  Level Minneapolis Center
Thu 04:49:31 PM 41.9683 -100.5208 80° East 459 528 39,000  Level Denver Center
Thu 04:50:33 PM 41.9931 -100.3358 80° East 451 519 39,000  Level Denver Center
Thu 04:51:35 PM 42.0139 -100.1764 80° East 451 519 39,000  Level Denver Center
Thu 04:52:38 PM 42.0364 -99.9903 81° East 452 520 39,000  Level Denver Center
Thu 04:53:40 PM 42.0564 -99.8336 80° East 448 516 39,000  Level Denver Center
Thu 04:54:42 PM 42.0792 -99.6544 80° East 448 516 39,000  Level Denver Center
Thu 04:55:44 PM 42.0992 -99.4878 81° East 449 517 39,000  Level Denver Center
Thu 04:56:33 PM 42.1158 -99.3564 80° East 449 517 39,000  Level Minneapolis Center
Thu 04:57:48 PM 42.1392 -99.1533 81° East 452 520 39,000  Level Denver Center
Thu 04:58:50 PM 42.1600 -98.9881 80° East 451 519 39,000  Level Minneapolis Center
Thu 04:59:53 PM 42.1797 -98.8192 81° East 454 522 39,000  Level Minneapolis Center
Thu 05:00:54 PM 42.2036 -98.6167 81° East 454 522 39,000  Level Minneapolis Center
Thu 05:01:57 PM 42.2222 -98.4467 82° East 457 526 39,000  Level Minneapolis Center
Thu 05:02:58 PM 42.2414 -98.2792 81° East 454 522 39,000  Level Minneapolis Center
Thu 05:08:34 PM 42.3430 -97.3150 81° East 462 532 39,000  Level FlightAware ADS-B
Thu 05:09:11 PM 42.3530 -97.2220 82° East 462 532 39,000  Level FlightAware ADS-B
Thu 05:10:00 PM 42.3680 -97.0770 82° East 463 533 39,000  Level FlightAware ADS-B
Thu 05:10:32 PM 42.3780 -96.9750 82° East 464 534 39,000  Level FlightAware ADS-B
Thu 05:11:06 PM 42.3880 -96.8720 82° East 465 535 39,000  Level FlightAware ADS-B
Thu 05:11:45 PM 42.3980 -96.7690 82° East 466 536 39,000  Level FlightAware ADS-B
Thu 05:12:26 PM 42.4100 -96.6450 82° East 466 536 39,000  Level FlightAware ADS-B
Thu 05:13:00 PM 42.4190 -96.5450 83° East 466 536 39,000  Level FlightAware ADS-B
Thu 05:13:34 PM 42.4280 -96.4500 83° East 466 536 39,000  Level FlightAware ADS-B
Thu 05:14:22 PM 42.4410 -96.3220 82° East 466 536 39,000  Level FlightAware ADS-B
Thu 05:15:08 PM 42.4530 -96.1900 83° East 466 536 39,000  Level FlightAware ADS-B
Thu 05:15:42 PM 42.4630 -96.0770 83° East 468 539 39,000  Level FlightAware ADS-B
Thu 05:16:16 PM 42.4720 -95.9770 83° East 468 539 39,000  Level FlightAware ADS-B
Thu 05:16:50 PM 42.4810 -95.8810 83° East 469 540 39,000  Level FlightAware ADS-B
Thu 05:17:26 PM 42.4900 -95.7750 83° East 470 541 39,000  Level FlightAware ADS-B
Thu 05:18:14 PM 42.5020 -95.6350 83° East 470 541 39,000  Level FlightAware ADS-B
Thu 05:18:50 PM 42.5120 -95.5300 83° East 472 543 39,000  Level FlightAware ADS-B
Thu 05:19:26 PM 42.5210 -95.4240 83° East 473 544 39,000  Level FlightAware ADS-B
Thu 05:20:00 PM 42.5290 -95.3250 84° East 474 545 39,000  Level FlightAware ADS-B
Thu 05:20:33 PM 42.5370 -95.2270 84° East 474 545 39,000  Level FlightAware ADS-B
Thu 05:21:08 PM 42.5460 -95.1250 83° East 475 547 39,000  Level FlightAware ADS-B
Thu 05:21:46 PM 42.5550 -95.0100 84° East 474 545 39,000  Level FlightAware ADS-B
Thu 05:22:21 PM 42.5630 -94.9070 84° East 474 545 39,000  Level FlightAware ADS-B
Thu 05:22:54 PM 42.5710 -94.8090 84° East 474 545 39,000  Level FlightAware ADS-B
Thu 05:23:30 PM 42.5790 -94.7060 84° East 473 544 39,000  Level FlightAware ADS-B
Thu 05:24:06 PM 42.5880 -94.5990 83° East 472 543 39,000  Level FlightAware ADS-B
Thu 05:24:36 PM 42.5950 -94.5080 84° East 471 542 39,000  Level FlightAware ADS-B
Thu 05:25:16 PM 42.6030 -94.3970 84° East 470 541 39,000  Level FlightAware ADS-B
Thu 05:25:48 PM 42.6110 -94.2980 84° East 470 541 39,000  Level FlightAware ADS-B
Thu 05:26:25 PM 42.6140 -94.1930 88° East 470 541 39,000  Level FlightAware ADS-B
Thu 05:26:58 PM 42.6130 -94.0930 91° East 468 539 39,000  Level FlightAware ADS-B
Thu 05:27:50 PM 42.6130 -93.9450 90° East 466 536 39,000  Level FlightAware ADS-B
Thu 05:28:26 PM 42.6140 -93.8410 89° East 464 534 39,000  Level FlightAware ADS-B
Thu 05:28:56 PM 42.6150 -93.7540 89° East 463 533 39,000  Level FlightAware ADS-B
Thu 05:29:34 PM 42.6150 -93.6440 90° East 462 532 39,000  Level FlightAware ADS-B
Thu 05:30:08 PM 42.6160 -93.5470 89° East 462 532 39,000  Level FlightAware ADS-B
Thu 05:30:42 PM 42.6160 -93.4450 90° East 462 532 39,000  Level FlightAware ADS-B
Thu 05:31:18 PM 42.6170 -93.3440 89° East 462 532 39,000  Level FlightAware ADS-B
Thu 05:31:52 PM 42.6170 -93.2440 90° East 462 532 39,000  Level FlightAware ADS-B
Thu 05:32:24 PM 42.6170 -93.1530 90° East 463 533 39,000  Level FlightAware ADS-B
Thu 05:33:03 PM 42.6170 -93.0370 90° East 464 534 39,000  Level FlightAware ADS-B
Thu 05:33:37 PM 42.6160 -92.9360 91° East 465 535 39,000  Level FlightAware ADS-B
Thu 05:34:09 PM 42.6160 -92.8440 90° East 466 536 39,000  Level FlightAware ADS-B
Thu 05:34:48 PM 42.6160 -92.7350 90° East 468 539 39,000  Level FlightAware ADS-B
Thu 05:35:25 PM 42.6150 -92.6200 91° East 470 541 39,000  Level FlightAware ADS-B
Thu 05:36:01 PM 42.6150 -92.5150 90° East 473 544 39,000  Level FlightAware ADS-B
Thu 05:36:33 PM 42.6140 -92.4190 91° East 475 547 39,000  Level FlightAware ADS-B
Thu 05:37:09 PM 42.6130 -92.3110 91° East 477 549 39,000  Level FlightAware ADS-B
Thu 05:37:45 PM 42.6130 -92.2060 90° East 479 551 39,000  Level FlightAware ADS-B
Thu 05:38:21 PM 42.6120 -92.0970 91° East 480 552 39,000  Level FlightAware ADS-B
Thu 05:38:53 PM 42.6110 -92.0020 91° East 482 555 39,000  Level FlightAware ADS-B
Thu 05:39:28 PM 42.6100 -91.9000 91° East 483 556 39,000  Level FlightAware ADS-B
Thu 05:40:06 PM 42.6080 -91.7840 91° East 483 556 39,000  Level FlightAware ADS-B
Thu 05:40:37 PM 42.6070 -91.6870 91° East 483 556 39,000  Level FlightAware ADS-B
Thu 05:41:13 PM 42.6060 -91.5780 91° East 483 556 39,000  Level FlightAware ADS-B
Thu 05:41:45 PM 42.6040 -91.4820 92° East 483 556 39,000  Level FlightAware ADS-B
Thu 05:42:25 PM 42.6020 -91.3600 91° East 482 555 39,000  Level FlightAware ADS-B
Thu 05:43:01 PM 42.6010 -91.2530 91° East 481 554 39,000  Level FlightAware ADS-B
Thu 05:43:33 PM 42.5990 -91.1580 92° East 480 552 39,000  Level FlightAware ADS-B
Thu 05:44:07 PM 42.5970 -91.0550 91° East 479 551 39,000  Level FlightAware ADS-B
Thu 05:44:45 PM 42.5950 -90.9380 91° East 477 549 39,000  Level FlightAware ADS-B
Thu 05:45:21 PM 42.5930 -90.8370 92° East 475 547 39,000  Level FlightAware ADS-B
Thu 05:45:53 PM 42.5910 -90.7380 92° East 474 545 39,000  Level FlightAware ADS-B
Thu 05:46:29 PM 42.5890 -90.6330 91° East 473 544 39,000  Level FlightAware ADS-B
Thu 05:47:05 PM 42.5860 -90.5230 92° East 473 544 39,000  Level FlightAware ADS-B
Thu 05:47:38 PM 42.5840 -90.4250 92° East 473 544 39,000  Level FlightAware ADS-B
Thu 05:48:10 PM 42.5820 -90.3340 92° East 473 544 39,000  Level FlightAware ADS-B
Thu 05:48:47 PM 42.5790 -90.2230 92° East 472 543 39,000  Level FlightAware ADS-B
Thu 05:49:24 PM 42.5760 -90.1130 92° East 472 543 39,000  Level FlightAware ADS-B
Thu 05:50:00 PM 42.5730 -90.0070 92° East 472 543 39,000  Level FlightAware ADS-B
Thu 05:50:36 PM 42.5700 -89.9000 92° East 471 542 39,000  Level FlightAware ADS-B
Thu 05:51:08 PM 42.5670 -89.8050 92° East 471 542 39,000  Level FlightAware ADS-B
Thu 05:51:40 PM 42.5650 -89.7100 92° East 471 542 39,000  Level FlightAware ADS-B
Thu 05:52:20 PM 42.5610 -89.5930 93° East 471 542 39,000  Level FlightAware ADS-B
Thu 05:52:53 PM 42.5580 -89.4970 92° East 470 541 39,000  Level FlightAware ADS-B
Thu 05:53:30 PM 42.5540 -89.3870 93° East 471 542 39,000  Level FlightAware ADS-B
Thu 05:54:07 PM 42.5510 -89.2800 92° East 471 542 39,000  Level FlightAware ADS-B
Thu 05:54:39 PM 42.5470 -89.1860 93° East 472 543 39,000  Level FlightAware ADS-B
Thu 05:55:15 PM 42.5440 -89.0790 92° East 472 543 39,000  Level FlightAware ADS-B
Thu 05:55:50 PM 42.5400 -88.9730 93° East 473 544 39,000  Level FlightAware ADS-B
Thu 05:56:22 PM 42.5370 -88.8820 93° East 473 544 39,000  Level FlightAware ADS-B
Thu 05:56:59 PM 42.5320 -88.7730 94° East 474 545 39,000  Level FlightAware ADS-B
Thu 05:57:35 PM 42.5280 -88.6650 93° East 474 545 39,000  Level FlightAware ADS-B
Thu 05:58:12 PM 42.5240 -88.5560 93° East 475 547 39,000  Level FlightAware ADS-B
Thu 05:58:44 PM 42.5200 -88.4590 93° East 475 547 39,000  Level FlightAware ADS-B
Thu 05:59:21 PM 42.5150 -88.3530 94° East 476 548 39,000  Level FlightAware ADS-B
Thu 05:59:57 PM 42.5110 -88.2440 93° East 477 549 39,000  Level FlightAware ADS-B
Thu 06:00:29 PM 42.5070 -88.1500 93° East 478 550 39,000  Level FlightAware ADS-B
Thu 06:01:04 PM 42.5020 -88.0430 94° East 479 551 39,000  Level FlightAware ADS-B
Thu 06:01:40 PM 42.5000 -87.9350 91° East 480 552 39,000  Level FlightAware ADS-B
Thu 06:02:13 PM 42.5000 -87.8370 90° East 481 554 39,000  Level FlightAware ADS-B
Thu 06:02:51 PM 42.5000 -87.7210 90° East 482 555 39,000  Level FlightAware ADS-B
Thu 06:03:26 PM 42.4990 -87.6160 91° East 483 556 39,000  Level FlightAware ADS-B
Thu 06:04:08 PM 42.4990 -87.4930 90° East 484 557 39,000  Level FlightAware ADS-B
Thu 06:04:40 PM 42.4990 -87.3950 90° East 484 557 39,000  Level FlightAware ADS-B
Thu 06:05:12 PM 42.4980 -87.2970 91° East 484 557 39,000  Level FlightAware ADS-B
Thu 06:05:53 PM 42.4970 -87.1740 91° East 484 557 39,000  Level FlightAware ADS-B
Thu 06:06:27 PM 42.4970 -87.0740 90° East 484 557 39,000  Level FlightAware ADS-B
Thu 06:07:01 PM 42.4960 -86.9760 91° East 484 557 39,000  Level FlightAware ADS-B
Thu 06:07:36 PM 42.4950 -86.8610 91° East 485 558 39,000  Level FlightAware ADS-B
Thu 06:08:15 PM 42.4940 -86.7470 91° East 485 558 39,000  Level FlightAware ADS-B
Thu 06:08:46 PM 42.4920 -86.6510 92° East 485 558 39,000  Level FlightAware ADS-B
Thu 06:09:23 PM 42.4910 -86.5360 91° East 486 559 39,000  Level FlightAware ADS-B
Thu 06:09:59 PM 42.4900 -86.4250 91° East 486 559 39,000  Level FlightAware ADS-B
Thu 06:10:31 PM 42.4880 -86.3270 92° East 486 559 39,000  Level FlightAware ADS-B
Thu 06:11:10 PM 42.4870 -86.2110 91° East 486 559 39,000  Level FlightAware ADS-B
Thu 06:11:42 PM 42.4850 -86.1140 92° East 485 558 39,000  Level FlightAware ADS-B
Thu 06:12:17 PM 42.4830 -86.0080 91° East 484 557 39,000  Level FlightAware ADS-B
Thu 06:12:54 PM 42.4810 -85.8960 91° East 483 556 39,000  Level FlightAware ADS-B
Thu 06:13:26 PM 42.4800 -85.8000 91° East 483 556 39,000  Level FlightAware ADS-B
Thu 06:14:04 PM 42.4770 -85.6860 92° East 483 556 39,000  Level FlightAware ADS-B
Thu 06:14:40 PM 42.4750 -85.5770 91° East 483 556 39,000  Level FlightAware ADS-B
Thu 06:15:11 PM 42.4730 -85.4810 92° East 482 555 39,000  Level FlightAware ADS-B
Thu 06:15:47 PM 42.4710 -85.3740 91° East 481 554 39,000  Level FlightAware ADS-B
Thu 06:16:24 PM 42.4680 -85.2640 92° East 481 554 39,000  Level FlightAware ADS-B
Thu 06:16:59 PM 42.4660 -85.1570 91° East 481 554 39,000  Level FlightAware ADS-B
Thu 06:17:40 PM 42.4630 -85.0400 92° East 481 554 39,000  Level FlightAware ADS-B
Thu 06:18:13 PM 42.4600 -84.9340 92° East 481 554 39,000  Level FlightAware ADS-B
Thu 06:18:50 PM 42.4570 -84.8270 92° East 481 554 39,000  Level FlightAware ADS-B
Thu 06:19:26 PM 42.4540 -84.7170 92° East 481 554 39,000  Level FlightAware ADS-B
Thu 06:19:59 PM 42.4510 -84.6170 92° East 481 554 39,000  Level FlightAware ADS-B
Thu 06:20:30 PM 42.4480 -84.5270 93° East 481 554 39,000  Level FlightAware ADS-B
Thu 06:21:12 PM 42.4450 -84.4040 92° East 481 554 39,000  Level FlightAware ADS-B
Thu 06:21:44 PM 42.4420 -84.3090 92° East 481 554 39,000  Level FlightAware ADS-B
Thu 06:22:21 PM 42.4380 -84.1950 93° East 481 554 39,000  Level FlightAware ADS-B
Thu 06:22:51 PM 42.4350 -84.1050 93° East 481 554 39,000  Level FlightAware ADS-B
Thu 06:23:30 PM 42.4310 -83.9840 93° East 481 554 39,000  Level FlightAware ADS-B
Thu 06:24:02 PM 42.4270 -83.8900 93° East 481 554 39,000  Level FlightAware ADS-B
Thu 06:24:38 PM 42.4240 -83.7810 92° East 481 554 39,000  Level FlightAware ADS-B
Thu 06:25:12 PM 42.4200 -83.6800 93° East 481 554 39,000  Level FlightAware ADS-B
Thu 06:25:50 PM 42.4150 -83.5660 93° East 481 554 39,000  Level FlightAware ADS-B
Thu 06:26:26 PM 42.4110 -83.4570 93° East 482 555 39,000  Level FlightAware ADS-B
Thu 06:26:58 PM 42.4070 -83.3610 93° East 482 555 39,000  Level FlightAware ADS-B
Thu 06:27:34 PM 42.4030 -83.2510 93° East 483 556 39,000  Level FlightAware ADS-B
Thu 06:28:10 PM 42.3990 -83.1500 93° East 483 556 39,000  Level FlightAware ADS-B
Thu 06:28:44 PM 42.3940 -83.0410 94° East 483 556 39,000  Level FlightAware ADS-B
Thu 06:29:20 PM 42.3890 -82.9330 94° East 483 556 39,000  Level FlightAware ADS-B
Thu 06:29:56 PM 42.3850 -82.8260 93° East 483 556 39,000  Level FlightAware ADS-B
Thu 06:30:32 PM 42.3790 -82.7150 94° East 484 557 39,000  Level FlightAware ADS-B
Thu 06:31:05 PM 42.3760 -82.6180 92° East 484 557 39,000  Level FlightAware ADS-B
Thu 06:31:42 PM 42.3710 -82.5050 93° East 485 558 39,000  Level FlightAware ADS-B
Thu 06:32:13 PM 42.3680 -82.4130 92° East 486 559 39,000  Level FlightAware ADS-B
Thu 06:32:50 PM 42.3630 -82.3000 93° East 487 560 39,000  Level FlightAware ADS-B
Thu 06:33:20 PM 42.3600 -82.2110 93° East 488 562 39,000  Level FlightAware ADS-B
Thu 06:34:04 PM 42.3540 -82.0780 93° East 488 562 39,000  Level FlightAware ADS-B
Thu 06:34:39 PM 42.3500 -81.9790 93° East 488 562 39,000  Level FlightAware ADS-B
Thu 06:35:18 PM 42.3440 -81.8580 94° East 489 563 39,000  Level FlightAware ADS-B
Thu 06:35:49 PM 42.3400 -81.7600 93° East 488 562 39,000  Level FlightAware ADS-B
Thu 06:36:20 PM 42.3350 -81.6660 94° East 490 564 39,000  Level FlightAware ADS-B
Thu 06:36:57 PM 42.3300 -81.5460 93° East 491 565 39,000  Level FlightAware ADS-B
Thu 06:37:36 PM 42.3240 -81.4270 94° East 492 566 39,000  Level FlightAware ADS-B
Thu 06:38:09 PM 42.3190 -81.3270 94° East 493 567 39,000  Level FlightAware ADS-B
Thu 06:38:44 PM 42.3140 -81.2200 94° East 492 566 39,000  Level FlightAware ADS-B
Thu 06:39:23 PM 42.3080 -81.0990 94° East 492 566 39,000  Level FlightAware ADS-B
Thu 06:39:55 PM 42.3030 -81.0010 94° East 492 566 39,000  Level FlightAware ADS-B
Thu 06:40:32 PM 42.2970 -80.8910 94° East 492 566 39,000  Level FlightAware ADS-B
Thu 06:41:08 PM 42.2910 -80.7790 94° East 492 566 39,000  Level FlightAware ADS-B
Thu 06:41:40 PM 42.2850 -80.6810 95° East 492 566 39,000  Level FlightAware ADS-B
Thu 06:42:14 PM 42.2800 -80.5790 94° East 492 566 39,000  Level FlightAware ADS-B
Thu 06:42:54 PM 42.2730 -80.4590 94° East 492 566 39,000  Level FlightAware ADS-B
Thu 06:43:24 PM 42.2680 -80.3680 94° East 492 566 39,000  Level FlightAware ADS-B
Thu 06:43:59 PM 42.2610 -80.2600 95° East 492 566 39,000  Level FlightAware ADS-B
Thu 06:44:34 PM 42.2550 -80.1590 95° East 493 567 39,000  Level FlightAware ADS-B
Thu 06:45:14 PM 42.2480 -80.0310 94° East 493 567 39,000  Level FlightAware ADS-B
Thu 06:45:46 PM 42.2420 -79.9390 95° East 494 568 39,000  Level FlightAware ADS-B
Thu 06:46:21 PM 42.2350 -79.8310 95° East 494 568 39,000  Level FlightAware ADS-B
Thu 06:46:57 PM 42.2280 -79.7220 95° East 495 570 39,000  Level FlightAware ADS-B
Thu 06:47:31 PM 42.2210 -79.6110 95° East 496 571 39,000  Level FlightAware ADS-B
Thu 06:48:06 PM 42.2150 -79.5090 95° East 497 572 39,000  Level FlightAware ADS-B
Thu 06:48:41 PM 42.2070 -79.3960 95° East 498 573 39,000  Level FlightAware ADS-B
Thu 06:49:16 PM 42.2000 -79.2880 95° East 500 575 39,000  Level FlightAware ADS-B
Thu 06:49:51 PM 42.1920 -79.1790 96° East 498 573 39,000  Level FlightAware ADS-B
Thu 06:50:26 PM 42.1770 -79.0760 101° East 494 568 39,000  Level FlightAware ADS-B
Thu 06:51:01 PM 42.1540 -78.9790 108° East 492 566 39,000  Level FlightAware ADS-B
Thu 06:51:36 PM 42.1270 -78.8700 108° East 492 566 39,000  Level FlightAware ADS-B
Thu 06:52:14 PM 42.0970 -78.7530 109° East 493 567 39,000  Level FlightAware ADS-B
Thu 06:52:46 PM 42.0740 -78.6620 109° East 494 568 39,000  Level FlightAware ADS-B
Thu 06:53:20 PM 42.0480 -78.5620 109° East 494 568 39,000  Level FlightAware ADS-B
Thu 06:53:54 PM 42.0240 -78.4650 108° East 494 568 39,000  Level FlightAware ADS-B
Thu 06:54:38 PM 41.9910 -78.3380 109° East 495 570 39,000  Level FlightAware ADS-B
Thu 06:55:14 PM 41.9640 -78.2350 109° East 497 572 39,000  Level FlightAware ADS-B
Thu 06:55:46 PM 41.9390 -78.1380 109° East 497 572 39,000  Level FlightAware ADS-B
Thu 06:56:24 PM 41.9110 -78.0270 109° East 498 573 39,000  Level FlightAware ADS-B
Thu 06:56:58 PM 41.8850 -77.9290 110° East 499 574 39,000  Level FlightAware ADS-B
Thu 06:57:34 PM 41.8580 -77.8260 109° East 500 575 39,000  Level FlightAware ADS-B
Thu 06:58:08 PM 41.8310 -77.7240 110° East 500 575 39,000  Level FlightAware ADS-B
Thu 06:58:42 PM 41.8050 -77.6230 109° East 500 575 39,000  Level FlightAware ADS-B
Thu 06:59:20 PM 41.7760 -77.5150 110° East 501 577 39,000  Level FlightAware ADS-B
Thu 06:59:56 PM 41.7480 -77.4080 109° East 501 577 39,000  Level FlightAware ADS-B
Thu 07:00:28 PM 41.7230 -77.3160 110° East 501 577 39,000  Level FlightAware ADS-B
Thu 07:01:04 PM 41.6950 -77.2120 110° East 501 577 39,000  Level FlightAware ADS-B
Thu 07:01:40 PM 41.6670 -77.1080 110° East 501 577 39,000  Level FlightAware ADS-B
Thu 07:02:02 PM 41.6496 -77.0431 110° East 502 578 39,000  Level FlightAware ADS-B
Thu 07:02:42 PM 41.6175 -76.9248 110° East 502 578 39,000  Level FlightAware ADS-B
Thu 07:03:13 PM 41.5935 -76.8372 110° East 501 577 39,000  Level FlightAware ADS-B
Thu 07:03:55 PM 41.5599 -76.7143 110° East 503 579 39,000  Level FlightAware ADS-B
Thu 07:04:33 PM 41.5297 -76.6046 110° East 503 579 39,000  Level FlightAware ADS-B
Thu 07:05:09 PM 41.5006 -76.4991 110° East 502 578 39,000  Level FlightAware ADS-B
Thu 07:05:41 PM 41.4750 -76.4067 110° East 502 578 39,000 -182 Level FlightAware ADS-B
Thu 07:06:15 PM 41.4477 -76.3087 110° East 502 578 38,800 -1,250 Descending FlightAware ADS-B
Thu 07:06:53 PM 41.4169 -76.1985 110° East 503 579 37,500 -2,206 Descending FlightAware ADS-B
Thu 07:07:23 PM 41.3922 -76.1105 110° East 501 577 36,300 -2,516 Descending FlightAware ADS-B
Thu 07:07:55 PM 41.3666 -76.0198 111° Southeast 501 577 34,900 -2,677 Descending FlightAware ADS-B
Thu 07:08:28 PM 41.3401 -75.9259 111° Southeast 500 575 33,400 -2,952 Descending FlightAware ADS-B
Thu 07:08:58 PM 41.3149 -75.8370 111° Southeast 501 577 31,800 -3,200 Descending FlightAware ADS-B
Thu 07:09:28 PM 41.2903 -75.7505 111° Southeast 504 580 30,200 -3,246 Descending FlightAware ADS-B
Thu 07:09:59 PM 41.2639 -75.6635 112° Southeast 504 580 28,500 -3,000 Descending FlightAware ADS-B
Thu 07:10:34 PM 41.2317 -75.5655 114° Southeast 496 571 26,900 -2,727 Descending FlightAware ADS-B
Thu 07:11:05 PM 41.2030 -75.4797 114° Southeast 488 562 25,500 -2,735 Descending FlightAware ADS-B
Thu 07:11:42 PM 41.1690 -75.3786 114° Southeast 477 549 23,800 -2,113 Descending FlightAware ADS-B
Thu 07:12:16 PM 41.1391 -75.2900 114° Southeast 472 543 23,000 -750 Descending FlightAware ADS-B
Thu 07:12:46 PM 41.1122 -75.2107 114° Southeast 470 541 23,000  Level FlightAware ADS-B
Thu 07:13:17 PM 41.0845 -75.1288 114° Southeast 470 541 23,000  Level FlightAware ADS-B
Thu 07:13:51 PM 41.0544 -75.0404 114° Southeast 473 544 23,000  Level FlightAware ADS-B
Thu 07:14:23 PM 41.0282 -74.9537 112° Southeast 474 545 23,000 -97 Level FlightAware ADS-B
Thu 07:14:53 PM 41.0078 -74.8712 108° East 472 543 22,900 -1,043 Descending FlightAware ADS-B
Thu 07:15:32 PM 40.9839 -74.7653 107° East 464 534 21,800 -2,087 Descending FlightAware ADS-B
Thu 07:16:02 PM 40.9660 -74.6841 106° East 456 525 20,500 -2,262 Descending FlightAware ADS-B
Thu 07:16:33 PM 40.9482 -74.6030 106° East 447 514 19,500 -1,475 Descending FlightAware ADS-B
Thu 07:17:03 PM 40.9308 -74.5243 106° East 443 510 19,000 -588 Descending FlightAware ADS-B
Thu 07:17:24 PM 40.9188 -74.4697 106° East 444 511 19,000  Level FlightAware ADS-B
Thu 07:17:34 PM 40.9130 -74.4439 107° East 445 512 19,000  Level FlightAware ADS-B
Thu 07:18:04 PM 40.8960 -74.3668 106° East 418 481 19,000  Level FlightAware ADS-B
Thu 07:18:36 PM 40.8799 -74.2942 106° East 383 441 19,000  Level FlightAware ADS-B
Thu 07:19:07 PM 40.8650 -74.2274 106° East 362 417 19,000  Level FlightAware ADS-B
Thu 07:19:25 PM 40.8558 -74.1886 107° East 358 412 19,000 -261 Level FlightAware ADS-B
Thu 07:19:30 PM 40.8525 -74.1784 113° Southeast 355 409 18,900 -857 Descending FlightAware ADS-B
Thu 07:19:32 PM 40.8510 -74.1746 118° Southeast 355 409 18,900 -750 Level FlightAware ADS-B
Thu 07:19:38 PM 40.8459 -74.1636 122° Southeast 351 404 18,800 -750 Descending FlightAware ADS-B
Thu 07:19:40 PM 40.8440 -74.1601 126° Southeast 352 405 18,800 -1,000 Level FlightAware ADS-B
Thu 07:19:50 PM 40.8341 -74.1455 132° Southeast 345 397 18,600 -1,500 Descending FlightAware ADS-B
Thu 07:20:00 PM 40.8214 -74.1327 143° Southeast 340 391 18,300 -2,000 Descending FlightAware ADS-B
Thu 07:20:08 PM 40.8107 -74.1246 150° Southeast 340 391 18,000 -1,692 Descending FlightAware ADS-B
Thu 07:20:39 PM 40.7675 -74.0957 153° Southeast 337 388 17,200 -1,588 Descending FlightAware ADS-B
Thu 07:20:42 PM 40.7634 -74.0930 153° Southeast 337 388 17,100 -1,543 Descending FlightAware ADS-B
Thu 07:21:14 PM 40.7185 -74.0635 154° Southeast 331 381 16,300 -1,588 Descending FlightAware ADS-B
Thu 07:21:16 PM 40.7153 -74.0614 154° Southeast 333 383 16,200 -811 Descending FlightAware ADS-B
Thu 07:21:51 PM 40.6671 -74.0306 154° Southeast 329 379 15,800 -1,029 Descending FlightAware ADS-B
Thu 07:22:26 PM 40.6181 -74.0100 162° South 323 372 15,000 -1,395 Descending FlightAware ADS-B
Thu 07:22:34 PM 40.6057 -74.0052 164° South 320 368 14,800 -1,459 Descending FlightAware ADS-B
Thu 07:23:03 PM 40.5658 -73.9899 164° South 318 366 14,100 -1,525 Descending FlightAware ADS-B
Thu 07:23:33 PM 40.5223 -73.9737 164° South 316 364 13,300 -1,273 Descending FlightAware ADS-B
Thu 07:24:09 PM 40.4725 -73.9549 164° South 311 358 12,700 -1,075 Descending FlightAware ADS-B
Thu 07:24:40 PM 40.4302 -73.9384 163° South 307 353 12,100 -1,279 Descending FlightAware ADS-B
Thu 07:25:10 PM 40.3894 -73.9226 164° South 302 348 11,400 -1,412 Descending FlightAware ADS-B
Thu 07:25:48 PM 40.3401 -73.9022 162° South 299 344 10,500 -1,463 Descending FlightAware ADS-B
Thu 07:25:51 PM 40.3355 -73.8986 149° Southeast 301 346 10,400 -1,333 Descending FlightAware ADS-B
Thu 07:25:57 PM 40.3289 -73.8918 142° Southeast 302 348 10,300 -1,091 Descending FlightAware ADS-B
Thu 07:26:02 PM 40.3249 -73.8864 134° Southeast 303 349 10,200 -1,286 Descending FlightAware ADS-B
Thu 07:26:11 PM 40.3168 -73.8729 128° Southeast 303 349 10,000 -1,448 Descending FlightAware ADS-B
Thu 07:26:31 PM 40.3009 -73.8431 125° Southeast 303 349 9,500 -1,404 Descending FlightAware ADS-B
Thu 07:26:58 PM 40.2793 -73.8033 125° Southeast 299 344 8,900 -1,317 Descending FlightAware ADS-B
Thu 07:27:12 PM 40.2704 -73.7809 118° Southeast 301 346 8,600 -1,000 Descending FlightAware ADS-B
Thu 07:27:34 PM 40.2712 -73.7408 88° East 298 343 8,300 -857 Descending FlightAware ADS-B
Thu 07:28:01 PM 40.2926 -73.7022 54° Northeast 292 336 7,900 -545 Descending FlightAware ADS-B
Thu 07:28:29 PM 40.3195 -73.6689 43° Northeast 288 331 7,800 -146 Descending FlightAware ADS-B
Thu 07:28:42 PM 40.3345 -73.6575 30° Northeast 287 330 7,800  Level FlightAware ADS-B
Thu 07:29:18 PM 40.3750 -73.6280 29° Northeast 286 329 7,800  Level FlightAware ADS-B
Thu 07:29:27 PM 40.3863 -73.6200 28° Northeast 286 329 7,800  Level FlightAware ADS-B
Thu 07:29:42 PM 40.4045 -73.6068 29° Northeast 286 329 7,800 -240 Level FlightAware ADS-B
Thu 07:30:17 PM 40.4444 -73.5778 29° Northeast 287 330 7,600 -700 Descending FlightAware ADS-B
Thu 07:30:42 PM 40.4738 -73.5565 29° Northeast 281 323 7,100 -955 Descending FlightAware ADS-B
Thu 07:31:01 PM 40.4949 -73.5414 29° Northeast 278 320 6,900 -941 Descending FlightAware ADS-B
Thu 07:31:33 PM 40.5270 -73.5180 29° Northeast 270 311 6,300 -1,154 Descending FlightAware ADS-B
Thu 07:31:53 PM 40.5490 -73.5020 29° Northeast 269 310 5,900 -1,350 Descending FlightAware ADS-B
Thu 07:32:13 PM 40.5720 -73.4850 29° Northeast 268 308 5,400 -1,200 Descending FlightAware ADS-B
Thu 07:32:28 PM 40.5840 -73.4790 21° North 265 305 5,200 -900 Descending FlightAware ADS-B
Thu 07:32:33 PM 40.5950 -73.4780 North 259 298 5,100 -1,000 Descending FlightAware ADS-B
Thu 07:32:58 PM 40.6230 -73.4790 358° North 253 291 4,700 -1,080 Descending FlightAware ADS-B
Thu 07:33:23 PM 40.6520 -73.4800 359° North 253 291 4,200 -1,200 Descending FlightAware ADS-B
Thu 07:33:43 PM 40.6750 -73.4840 352° North 250 288 3,800 -1,000 Descending FlightAware ADS-B
Thu 07:33:53 PM 40.6840 -73.4900 333° Northwest 247 284 3,700 -545 Descending FlightAware ADS-B
Thu 07:34:05 PM 40.6960 -73.5080 311° West 235 270 3,600 -692 Descending FlightAware ADS-B
Thu 07:34:19 PM 40.7050 -73.5240 307° West 230 265 3,400 -667 Descending FlightAware ADS-B
Thu 07:34:41 PM 40.7180 -73.5480 306° West 223 257 3,200 -571 Descending FlightAware ADS-B
Thu 07:35:01 PM 40.7300 -73.5700 306° West 216 249 3,000 -545 Descending FlightAware ADS-B
Thu 07:35:25 PM 40.7440 -73.5940 308° West 203 234 2,800 -558 Descending FlightAware ADS-B
Thu 07:35:44 PM 40.7540 -73.6120 306° West 195 224 2,600 -600 Descending FlightAware ADS-B
Thu 07:36:05 PM 40.7650 -73.6320 306° West 185 213 2,400 -732 Descending FlightAware ADS-B
Thu 07:36:25 PM 40.7710 -73.6530 291° West 183 211 2,100 -750 Descending FlightAware ADS-B
Thu 07:36:53 PM 40.7580 -73.6720 228° Southwest 191 220 1,800 -346 Descending FlightAware ADS-B
Thu 07:37:17 PM 40.7380 -73.6850 206° Southwest 178 205 1,800 -300 Level FlightAware ADS-B
Thu 07:37:33 PM 40.7260 -73.6920 204° Southwest 178 205 1,600 -900 Descending FlightAware ADS-B
Thu 07:37:57 PM 40.7090 -73.7050 210° Southwest 174 200 1,200 -800 Descending FlightAware ADS-B
Thu 07:38:18 PM 40.6950 -73.7160 211° Southwest 152 175 1,000 -682 Descending FlightAware ADS-B
Thu 07:38:41 PM 40.6810 -73.7270 211° Southwest 130 150 700 -750 Descending FlightAware ADS-B
Thu 07:38:58 PM 40.6740 -73.7330 213° Southwest 124 143 500 -682 Descending FlightAware ADS-B
Thu 07:39:25 PM 40.6602 -73.7431 209° Southwest 119 137 200 -667 Descending FlightAware ADS-B
Thu 07:39:55 PM 40.6460 -73.7540 210° Southwest 123 142 -400 Descending FlightAware ADS-B
Thu 07:40:19 PM 40.6350 -73.7630 212° Southwest 82 94  Level FlightAware ADS-B

Login

Don't have an account? Register now (free) for customized features, flight alerts, and more!